createdAt,value
2023-02-19T00:02:17.335Z,9.40
2023-02-19T00:07:21.248Z,9.50
2023-02-19T00:12:23.602Z,9.50
2023-02-19T00:17:25.971Z,9.60
2023-02-19T00:22:29.875Z,9.60
2023-02-19T00:27:33.272Z,9.60
2023-02-19T00:32:35.749Z,9.60
2023-02-19T00:37:39.945Z,9.60
2023-02-19T00:42:42.330Z,9.60
2023-02-19T00:47:44.862Z,9.50
2023-02-19T00:52:48.910Z,9.40
2023-02-19T00:57:51.279Z,9.40
2023-02-19T01:02:53.662Z,9.40
2023-02-19T01:07:57.426Z,9.40
2023-02-19T01:12:59.747Z,9.30
2023-02-19T01:18:02.105Z,9.30
2023-02-19T01:23:05.927Z,9.20
2023-02-19T01:28:09.189Z,9.20
2023-02-19T01:33:11.538Z,9.20
2023-02-19T01:38:15.319Z,9.20
2023-02-19T01:43:17.756Z,9.10
2023-02-19T01:48:24.498Z,9.10
2023-02-19T01:53:33.099Z,9.10
2023-02-19T01:58:37.106Z,9.00
2023-02-19T02:03:42.060Z,9.00
2023-02-19T02:08:45.910Z,9.00
2023-02-19T02:13:49.770Z,8.90
2023-02-19T02:19:05.642Z,8.80
2023-02-19T02:24:33.070Z,8.90
2023-02-19T02:30:17.700Z,8.90
2023-02-19T02:35:24.876Z,8.90
2023-02-19T02:40:27.267Z,8.90
2023-02-19T02:45:33.138Z,9.00
2023-02-19T02:50:40.991Z,9.10
2023-02-19T02:55:47.489Z,9.10
2023-02-19T03:01:23.213Z,9.10
2023-02-19T03:07:30.366Z,9.20
2023-02-19T03:12:57.024Z,9.20
2023-02-19T03:18:28.831Z,9.30
2023-02-19T03:30:21.605Z,9.30
2023-02-19T03:36:31.233Z,9.20
2023-02-19T03:42:50.212Z,9.30
2023-02-19T03:48:32.471Z,9.20
2023-02-19T03:59:47.379Z,9.30
2023-02-19T04:05:08.827Z,9.30
2023-02-19T04:10:35.670Z,9.20
2023-02-19T04:15:49.206Z,9.20
2023-02-19T04:21:14.879Z,9.20
2023-02-19T04:32:48.801Z,9.10
2023-02-19T04:44:05.632Z,9.10
2023-02-19T04:49:10.526Z,9.10
2023-02-19T04:54:19.787Z,9.10
2023-02-19T04:59:38.888Z,9.00
2023-02-19T05:05:03.792Z,9.10
2023-02-19T05:10:13.192Z,9.00
2023-02-19T05:15:34.093Z,9.00
2023-02-19T05:26:23.252Z,8.90
2023-02-19T05:31:53.672Z,8.90
2023-02-19T05:37:06.037Z,8.90
2023-02-19T05:42:13.728Z,8.80
2023-02-19T05:47:35.845Z,8.70
2023-02-19T05:53:06.745Z,8.60
2023-02-19T05:58:45.574Z,8.50
2023-02-19T06:03:59.746Z,8.50
2023-02-19T06:09:08.265Z,8.50
2023-02-19T06:14:26.672Z,8.40
2023-02-19T06:19:38.000Z,8.40
2023-02-19T06:25:18.579Z,8.40
2023-02-19T06:30:34.361Z,8.40
2023-02-19T06:36:20.414Z,8.40
2023-02-19T06:41:41.785Z,8.40
2023-02-19T06:47:25.432Z,8.40
2023-02-19T07:05:11.393Z,8.40
2023-02-19T07:10:27.989Z,8.30
2023-02-19T07:16:03.061Z,8.40
2023-02-19T07:21:13.457Z,8.30
2023-02-19T07:26:28.584Z,8.40
2023-02-19T07:31:41.799Z,8.40
2023-02-19T07:37:03.115Z,8.50
2023-02-19T07:42:18.700Z,8.60
2023-02-19T07:47:26.609Z,8.70
2023-02-19T07:52:37.421Z,8.90
2023-02-19T07:57:41.935Z,9.00
2023-02-19T08:02:48.493Z,9.30
2023-02-19T08:08:12.983Z,10.20
2023-02-19T08:13:17.562Z,11.50
2023-02-19T08:18:22.484Z,13.00
2023-02-19T08:23:26.601Z,14.30
2023-02-19T08:28:33.478Z,15.40
2023-02-19T08:33:36.211Z,16.40
2023-02-19T08:38:38.885Z,17.40
2023-02-19T08:43:46.099Z,18.10
2023-02-19T08:48:50.472Z,18.80
2023-02-19T08:53:58.766Z,19.40
2023-02-19T08:59:02.993Z,19.90
2023-02-19T09:04:05.744Z,20.40
2023-02-19T09:09:09.580Z,20.70
2023-02-19T09:14:13.584Z,21.10
2023-02-19T09:19:16.055Z,21.20
2023-02-19T09:24:24.515Z,21.30
2023-02-19T09:29:29.404Z,21.40
2023-02-19T09:34:33.649Z,21.40
2023-02-19T09:39:36.880Z,21.10
2023-02-19T09:44:43.993Z,20.60
2023-02-19T09:49:47.437Z,20.50
2023-02-19T09:54:50.922Z,20.60
2023-02-19T10:00:00.387Z,20.80
2023-02-19T10:05:10.469Z,20.80
2023-02-19T10:10:29.553Z,20.60
2023-02-19T10:15:38.602Z,20.30
2023-02-19T10:20:41.749Z,20.00
2023-02-19T10:25:47.715Z,19.60
2023-02-19T10:30:55.006Z,19.20
2023-02-19T10:36:03.609Z,19.20
2023-02-19T10:41:13.437Z,19.50
2023-02-19T10:59:37.723Z,19.90
2023-02-19T11:05:29.397Z,19.60
2023-02-19T11:16:52.103Z,19.00
2023-02-19T11:21:58.793Z,18.70
2023-02-19T11:27:20.300Z,18.30
2023-02-19T11:52:00.403Z,16.80
2023-02-19T12:04:28.302Z,16.50
2023-02-19T12:10:07.168Z,16.60
2023-02-19T12:16:12.413Z,16.50
2023-02-19T12:21:53.110Z,16.30
2023-02-19T12:27:35.145Z,16.10
2023-02-19T12:33:39.232Z,16.00
2023-02-19T12:39:20.394Z,16.10
2023-02-19T12:45:24.557Z,16.00
2023-02-19T12:56:44.213Z,15.60
2023-02-19T13:02:27.102Z,15.60
2023-02-19T13:07:38.770Z,15.90
2023-02-19T13:12:44.135Z,16.10
2023-02-19T13:17:50.555Z,16.10
2023-02-19T13:23:01.799Z,16.20
2023-02-19T13:28:22.962Z,16.20
2023-02-19T13:33:37.442Z,16.10
2023-02-19T13:38:49.311Z,15.90
2023-02-19T13:44:02.052Z,15.70
2023-02-19T13:49:43.127Z,15.60
2023-02-19T13:55:11.109Z,15.50
2023-02-19T14:00:44.214Z,15.40
2023-02-19T14:06:03.901Z,15.40
2023-02-19T14:11:14.053Z,15.40
2023-02-19T14:16:31.764Z,15.50
2023-02-19T14:21:39.521Z,15.50
2023-02-19T14:26:47.347Z,15.50
2023-02-19T14:31:51.552Z,15.30
2023-02-19T14:36:56.374Z,15.10
2023-02-19T14:42:06.772Z,14.90
2023-02-19T14:47:15.477Z,14.50
2023-02-19T14:52:26.843Z,14.40
2023-02-19T14:57:38.317Z,14.10
2023-02-19T15:02:45.552Z,13.90
2023-02-19T15:07:59.737Z,13.70
2023-02-19T15:13:07.908Z,13.60
2023-02-19T15:18:18.068Z,13.40
2023-02-19T15:23:26.533Z,13.30
2023-02-19T15:28:36.080Z,13.10
2023-02-19T15:33:38.396Z,13.00
2023-02-19T15:38:46.201Z,12.90
2023-02-19T15:43:58.645Z,12.80
2023-02-19T15:49:06.767Z,12.60
2023-02-19T15:54:16.932Z,12.50
2023-02-19T15:59:30.756Z,12.40
2023-02-19T16:04:35.845Z,12.30
2023-02-19T16:10:08.632Z,12.10
2023-02-19T16:15:24.757Z,12.00
2023-02-19T16:20:30.889Z,11.80
2023-02-19T16:25:43.672Z,11.70
2023-02-19T16:30:58.093Z,11.50
2023-02-19T16:36:24.337Z,11.40
2023-02-19T16:47:45.443Z,11.10
2023-02-19T16:52:52.708Z,10.90
2023-02-19T16:58:05.664Z,10.80
2023-02-19T17:03:18.005Z,10.70
2023-02-19T17:08:32.416Z,10.60
2023-02-19T17:13:35.813Z,10.50
2023-02-19T17:18:48.266Z,10.40
2023-02-19T17:23:51.288Z,10.30
2023-02-19T17:28:54.829Z,10.30
2023-02-19T17:33:59.239Z,10.30
2023-02-19T17:39:04.386Z,10.20
2023-02-19T17:44:07.226Z,10.20
2023-02-19T17:49:16.072Z,10.20
2023-02-19T17:54:19.653Z,10.20
2023-02-19T17:59:27.023Z,10.20
2023-02-19T18:04:37.949Z,10.10
2023-02-19T18:09:49.403Z,10.10
2023-02-19T18:14:52.404Z,10.10
2023-02-19T18:19:58.457Z,10.00
2023-02-19T18:25:01.392Z,10.00
2023-02-19T18:30:09.406Z,10.00
2023-02-19T18:35:13.851Z,10.00
2023-02-19T18:45:57.247Z,9.90
2023-02-19T18:51:28.408Z,9.90
2023-02-19T18:57:04.879Z,9.80
2023-02-19T19:02:31.575Z,9.70
2023-02-19T19:08:06.221Z,9.70
2023-02-19T19:13:41.706Z,9.60
2023-02-19T19:18:54.585Z,9.50
2023-02-19T19:24:13.533Z,9.40
2023-02-19T19:29:22.272Z,9.40
2023-02-19T19:41:49.905Z,9.30
2023-02-19T19:47:13.668Z,9.20
2023-02-19T19:53:08.064Z,9.20
2023-02-19T20:17:13.723Z,9.00
2023-02-19T20:22:16.035Z,9.00
2023-02-19T20:27:18.961Z,8.90
2023-02-19T20:32:22.950Z,8.80
2023-02-19T20:37:27.230Z,8.70
2023-02-19T20:42:30.568Z,8.60
2023-02-19T20:47:34.710Z,8.60
2023-02-19T20:52:36.981Z,8.50
2023-02-19T20:57:39.294Z,8.50
2023-02-19T21:02:43.402Z,8.40
2023-02-19T21:07:59.469Z,8.40
2023-02-19T21:13:02.054Z,8.50
2023-02-19T21:18:06.073Z,8.40
2023-02-19T21:23:08.557Z,8.40
2023-02-19T21:28:10.827Z,8.50
2023-02-19T21:33:18.049Z,8.50
2023-02-19T21:38:20.189Z,8.50
2023-02-19T21:43:25.652Z,8.50
2023-02-19T21:48:30.398Z,8.50
2023-02-19T21:53:33.752Z,8.50
2023-02-19T21:58:36.834Z,8.50
2023-02-19T22:03:45.217Z,8.60
2023-02-19T22:08:48.193Z,8.60
2023-02-19T22:13:52.143Z,8.60
2023-02-19T22:19:06.654Z,8.60
2023-02-19T22:24:37.619Z,8.60
2023-02-19T22:29:51.970Z,8.60
2023-02-19T22:35:04.242Z,8.60
2023-02-19T22:40:22.375Z,8.60
2023-02-19T22:45:51.991Z,8.60
2023-02-19T22:51:08.220Z,8.60
2023-02-19T22:56:24.792Z,8.60
2023-02-19T23:01:56.234Z,8.60
2023-02-19T23:07:22.346Z,8.60
2023-02-19T23:12:30.556Z,8.60
2023-02-19T23:18:04.792Z,8.60
2023-02-19T23:23:58.510Z,8.60
2023-02-19T23:40:33.213Z,8.50
2023-02-19T23:51:52.350Z,8.60
2023-02-19T23:57:10.834Z,8.60
